createdAt,value
2019-05-02T00:01:37.260Z,14.60
2019-05-02T00:04:03.546Z,14.60
2019-05-02T00:06:30.740Z,14.60
2019-05-02T00:08:56.900Z,14.50
2019-05-02T00:11:23.013Z,14.50
2019-05-02T00:13:49.011Z,14.40
2019-05-02T00:16:15.461Z,14.40
2019-05-02T00:18:41.686Z,14.40
2019-05-02T00:21:07.804Z,14.30
2019-05-02T00:23:34.994Z,14.30
2019-05-02T00:26:02.408Z,14.30
2019-05-02T00:28:29.452Z,14.30
2019-05-02T00:30:57.932Z,14.20
2019-05-02T00:33:23.964Z,14.20
2019-05-02T00:35:52.468Z,14.20
2019-05-02T00:38:18.682Z,14.20
2019-05-02T00:40:50.646Z,14.20
2019-05-02T00:43:16.678Z,14.20
2019-05-02T00:45:44.863Z,14.10
2019-05-02T00:48:19.320Z,14.10
2019-05-02T00:50:50.972Z,14.10
2019-05-02T00:53:14.900Z,14.10
2019-05-02T00:55:40.922Z,14.10
2019-05-02T00:58:06.961Z,14.10
2019-05-02T01:00:35.684Z,14.10
2019-05-02T01:03:02.410Z,14.00
2019-05-02T01:05:33.865Z,13.90
2019-05-02T01:08:01.045Z,13.90
2019-05-02T01:10:28.689Z,13.90
2019-05-02T01:12:54.856Z,13.90
2019-05-02T01:15:20.880Z,13.80
2019-05-02T01:17:48.553Z,13.70
2019-05-02T01:20:14.647Z,13.70
2019-05-02T01:22:40.908Z,13.70
2019-05-02T01:25:14.959Z,13.70
2019-05-02T01:27:48.787Z,13.60
2019-05-02T01:30:37.152Z,13.50
2019-05-02T01:33:10.520Z,13.60
2019-05-02T01:35:41.230Z,13.60
2019-05-02T01:38:17.759Z,13.60
2019-05-02T01:40:48.156Z,13.70
2019-05-02T01:43:29.903Z,13.70
2019-05-02T01:45:56.006Z,13.70
2019-05-02T01:48:22.576Z,13.60
2019-05-02T01:50:49.707Z,13.70
2019-05-02T01:53:17.012Z,13.60
2019-05-02T01:55:44.456Z,13.50
2019-05-02T01:58:10.537Z,13.50
2019-05-02T02:00:40.940Z,13.50
2019-05-02T02:03:09.197Z,13.50
2019-05-02T02:05:35.883Z,13.40
2019-05-02T02:08:01.963Z,13.30
2019-05-02T02:10:27.979Z,13.30
2019-05-02T02:13:03.370Z,13.30
2019-05-02T02:15:25.036Z,13.10
2019-05-02T02:17:53.779Z,13.00
2019-05-02T02:20:21.719Z,13.00
2019-05-02T02:23:01.284Z,13.00
2019-05-02T02:25:39.956Z,13.00
2019-05-02T02:28:07.858Z,13.00
2019-05-02T02:30:35.342Z,13.00
2019-05-02T02:33:07.420Z,12.80
2019-05-02T02:35:29.335Z,12.80
2019-05-02T02:37:55.866Z,12.80
2019-05-02T02:40:33.026Z,12.70
2019-05-02T02:42:49.894Z,12.70
2019-05-02T02:45:38.655Z,12.70
2019-05-02T02:48:05.662Z,12.60
2019-05-02T02:50:36.690Z,12.50
2019-05-02T02:53:00.641Z,12.50
2019-05-02T02:55:28.661Z,12.40
2019-05-02T02:57:58.322Z,12.50
2019-05-02T03:00:22.768Z,12.50
2019-05-02T03:02:50.131Z,12.50
2019-05-02T03:05:18.687Z,12.50
2019-05-02T03:07:44.202Z,12.50
2019-05-02T03:10:11.334Z,12.50
2019-05-02T03:12:41.427Z,12.50
2019-05-02T03:15:09.437Z,12.40
2019-05-02T03:17:35.439Z,12.30
2019-05-02T03:20:03.951Z,12.20
2019-05-02T03:22:34.938Z,12.10
2019-05-02T03:24:58.629Z,12.10
2019-05-02T03:27:29.999Z,12.00
2019-05-02T03:29:52.525Z,11.90
2019-05-02T03:32:32.172Z,11.90
2019-05-02T03:34:53.492Z,11.90
2019-05-02T03:37:16.532Z,11.90
2019-05-02T03:39:42.583Z,11.90
2019-05-02T03:42:08.964Z,12.00
2019-05-02T03:44:34.932Z,12.00
2019-05-02T03:47:04.618Z,11.90
2019-05-02T03:49:29.986Z,11.90
2019-05-02T03:52:02.605Z,11.90
2019-05-02T03:54:23.942Z,11.90
2019-05-02T03:56:51.543Z,11.90
2019-05-02T03:59:20.083Z,11.90
2019-05-02T04:01:46.948Z,11.90
2019-05-02T04:04:20.553Z,11.80
2019-05-02T04:06:43.425Z,11.80
2019-05-02T04:09:13.242Z,11.80
2019-05-02T04:11:40.935Z,11.70
2019-05-02T04:14:15.905Z,11.80
2019-05-02T04:16:38.124Z,11.70
2019-05-02T04:19:04.137Z,11.70
2019-05-02T04:21:30.372Z,11.60
2019-05-02T04:24:06.675Z,11.70
2019-05-02T04:26:24.247Z,11.60
2019-05-02T04:28:51.795Z,11.60
2019-05-02T04:31:18.182Z,11.60
2019-05-02T04:33:44.326Z,11.60
2019-05-02T04:36:15.862Z,11.60
2019-05-02T04:38:46.538Z,11.60
2019-05-02T04:41:09.358Z,11.60
2019-05-02T04:43:40.581Z,11.70
2019-05-02T04:46:09.253Z,11.70
2019-05-02T04:48:34.799Z,11.80
2019-05-02T04:51:10.415Z,11.80
2019-05-02T04:53:36.593Z,11.80
2019-05-02T04:56:06.945Z,11.80
2019-05-02T04:58:33.405Z,11.70
2019-05-02T05:00:59.252Z,11.70
2019-05-02T05:03:28.405Z,11.70
2019-05-02T05:06:01.568Z,11.80
2019-05-02T05:08:26.468Z,11.80
2019-05-02T05:10:51.811Z,11.80
2019-05-02T05:13:22.785Z,11.80
2019-05-02T05:15:51.157Z,11.80
2019-05-02T05:18:14.651Z,11.80
2019-05-02T05:20:46.082Z,11.80
2019-05-02T05:23:15.698Z,11.90
2019-05-02T05:25:55.609Z,11.90
2019-05-02T05:28:20.009Z,12.00
2019-05-02T05:30:51.883Z,12.00
2019-05-02T05:33:18.146Z,11.90
2019-05-02T05:35:48.777Z,12.00
2019-05-02T05:38:14.405Z,12.00
2019-05-02T05:40:41.420Z,12.10
2019-05-02T05:43:14.560Z,12.20
2019-05-02T05:45:48.767Z,12.20
2019-05-02T05:48:04.364Z,12.30
2019-05-02T05:50:32.222Z,12.40
2019-05-02T05:52:59.520Z,12.50
2019-05-02T05:55:25.668Z,12.60
2019-05-02T05:57:59.699Z,12.70
2019-05-02T06:00:23.232Z,12.70
2019-05-02T06:02:53.963Z,12.70
2019-05-02T06:05:17.447Z,12.70
2019-05-02T06:07:47.311Z,12.60
2019-05-02T06:10:14.450Z,12.70
2019-05-02T06:12:40.536Z,12.70
2019-05-02T06:15:06.547Z,12.80
2019-05-02T06:17:35.775Z,12.80
2019-05-02T06:20:04.690Z,12.90
2019-05-02T06:22:31.833Z,13.00
2019-05-02T06:24:59.823Z,13.00
2019-05-02T06:27:30.257Z,13.10
2019-05-02T06:29:56.159Z,13.10
2019-05-02T06:32:21.695Z,13.20
2019-05-02T06:34:48.867Z,13.30
2019-05-02T06:37:15.500Z,13.30
2019-05-02T06:39:41.658Z,13.40
2019-05-02T06:42:07.670Z,13.40
2019-05-02T06:44:33.687Z,13.50
2019-05-02T06:47:04.375Z,13.60
2019-05-02T06:49:29.670Z,13.70
2019-05-02T06:51:56.199Z,13.70
2019-05-02T06:54:27.610Z,13.80
2019-05-02T06:56:53.770Z,13.80
2019-05-02T06:59:20.352Z,13.80
2019-05-02T07:01:52.349Z,13.60
2019-05-02T07:04:22.923Z,13.40
2019-05-02T07:06:58.168Z,13.40
2019-05-02T07:09:15.941Z,13.40
2019-05-02T07:11:56.406Z,13.40
2019-05-02T07:14:13.810Z,13.30
2019-05-02T07:16:41.927Z,13.30
2019-05-02T07:19:27.212Z,13.50
2019-05-02T07:21:53.046Z,13.60
2019-05-02T07:24:19.815Z,13.70
2019-05-02T07:26:45.957Z,13.70
2019-05-02T07:29:11.986Z,13.80
2019-05-02T07:31:42.961Z,13.70
2019-05-02T07:34:12.940Z,13.70
2019-05-02T07:36:38.343Z,13.90
2019-05-02T07:39:07.019Z,14.10
2019-05-02T07:41:33.027Z,14.10
2019-05-02T07:44:00.064Z,13.90
2019-05-02T07:46:28.322Z,13.70
2019-05-02T07:48:58.275Z,13.50
2019-05-02T07:51:24.471Z,13.50
2019-05-02T07:53:50.513Z,13.60
2019-05-02T07:56:18.882Z,13.50
2019-05-02T07:58:48.006Z,13.50
2019-05-02T08:01:15.179Z,13.40
2019-05-02T08:03:41.182Z,13.50
2019-05-02T08:06:07.635Z,13.50
2019-05-02T08:08:36.157Z,13.40
2019-05-02T08:11:03.246Z,13.40
2019-05-02T08:13:31.447Z,13.50
2019-05-02T08:15:58.299Z,13.80
2019-05-02T08:18:25.133Z,13.90
2019-05-02T08:20:56.028Z,13.90
2019-05-02T08:23:25.767Z,13.80
2019-05-02T08:25:49.465Z,13.80
2019-05-02T08:28:17.938Z,14.10
2019-05-02T08:30:51.817Z,13.90
2019-05-02T08:33:17.825Z,13.80
2019-05-02T08:35:44.047Z,13.70
2019-05-02T08:38:12.668Z,13.70
2019-05-02T08:40:42.273Z,13.60
2019-05-02T08:43:09.286Z,13.60
2019-05-02T08:45:38.142Z,13.80
2019-05-02T08:48:09.646Z,14.10
2019-05-02T08:50:38.072Z,14.20
2019-05-02T08:53:04.093Z,14.20
2019-05-02T08:55:30.213Z,14.20
2019-05-02T08:57:56.231Z,14.30
2019-05-02T09:00:22.318Z,14.40
2019-05-02T09:02:49.408Z,14.30
2019-05-02T09:05:15.530Z,14.50
2019-05-02T09:07:44.462Z,14.60
2019-05-02T09:10:12.516Z,14.60
2019-05-02T09:12:45.334Z,14.60
2019-05-02T09:15:11.674Z,14.50
2019-05-02T09:17:38.887Z,14.70
2019-05-02T09:20:15.479Z,14.70
2019-05-02T09:22:35.228Z,14.80
2019-05-02T09:25:02.218Z,14.80
2019-05-02T09:27:31.889Z,14.90
2019-05-02T09:29:57.899Z,15.00
2019-05-02T09:32:26.317Z,15.00
2019-05-02T09:34:56.623Z,15.10
2019-05-02T09:37:22.749Z,15.20
2019-05-02T09:39:52.502Z,15.10
2019-05-02T09:42:19.152Z,15.10
2019-05-02T09:44:55.429Z,15.10
2019-05-02T09:47:27.393Z,15.20
2019-05-02T09:50:06.486Z,15.20
2019-05-02T09:52:39.242Z,15.50
2019-05-02T09:55:06.163Z,15.50
2019-05-02T09:57:34.655Z,15.60
2019-05-02T10:00:14.850Z,15.60
2019-05-02T10:02:41.846Z,15.50
2019-05-02T10:05:08.218Z,15.50
2019-05-02T10:07:35.214Z,15.60
2019-05-02T10:10:03.195Z,15.80
2019-05-02T10:12:32.095Z,15.80
2019-05-02T10:14:59.174Z,16.00
2019-05-02T10:17:25.881Z,15.90
2019-05-02T10:19:56.565Z,15.90
2019-05-02T10:22:19.901Z,16.00
2019-05-02T10:24:47.805Z,16.00
2019-05-02T10:27:13.863Z,16.00
2019-05-02T10:29:41.866Z,16.20
2019-05-02T10:32:13.018Z,16.20
2019-05-02T10:34:37.205Z,16.50
2019-05-02T10:37:03.301Z,16.50
2019-05-02T10:39:36.158Z,16.70
2019-05-02T10:42:01.972Z,16.60
2019-05-02T10:44:34.859Z,16.70
2019-05-02T10:46:57.606Z,17.00
2019-05-02T10:49:26.648Z,16.90
2019-05-02T10:51:54.356Z,17.00
2019-05-02T10:54:23.122Z,17.10
2019-05-02T10:56:49.367Z,17.10
2019-05-02T10:59:22.080Z,17.10
2019-05-02T11:01:52.158Z,17.10
2019-05-02T11:04:18.366Z,17.20
2019-05-02T11:06:46.322Z,17.30
2019-05-02T11:09:16.849Z,17.20
2019-05-02T11:11:42.578Z,17.30
2019-05-02T11:14:19.428Z,17.50
2019-05-02T11:16:56.909Z,17.60
2019-05-02T11:19:44.165Z,17.60
2019-05-02T11:22:12.153Z,17.90
2019-05-02T11:24:38.297Z,17.90
2019-05-02T11:27:04.475Z,17.90
2019-05-02T11:29:32.226Z,18.00
2019-05-02T11:31:59.455Z,18.10
2019-05-02T11:34:25.771Z,18.20
2019-05-02T11:36:56.199Z,18.10
2019-05-02T11:39:30.969Z,18.10
2019-05-02T11:41:53.680Z,18.10
2019-05-02T11:44:22.542Z,18.30
2019-05-02T11:46:49.109Z,18.30
2019-05-02T11:49:15.141Z,18.50
2019-05-02T11:51:42.137Z,18.50
2019-05-02T11:54:09.488Z,18.60
2019-05-02T11:56:35.638Z,18.90
2019-05-02T11:59:02.886Z,18.90
2019-05-02T12:01:37.077Z,18.60
2019-05-02T12:03:58.101Z,18.50
2019-05-02T12:06:24.341Z,18.50
2019-05-02T12:08:53.771Z,18.50
2019-05-02T12:11:19.897Z,18.60
2019-05-02T12:13:47.364Z,18.90
2019-05-02T12:16:15.971Z,19.10
2019-05-02T12:18:42.101Z,19.30
2019-05-02T12:21:11.826Z,19.10
2019-05-02T12:23:37.721Z,18.90
2019-05-02T12:26:03.977Z,18.80
2019-05-02T12:28:32.435Z,18.70
2019-05-02T12:31:00.193Z,18.70
2019-05-02T12:33:29.137Z,19.00
2019-05-02T12:35:56.706Z,18.80
2019-05-02T12:38:23.517Z,18.90
2019-05-02T12:40:51.906Z,18.80
2019-05-02T12:43:19.495Z,18.90
2019-05-02T12:45:46.509Z,18.70
2019-05-02T12:48:13.522Z,18.70
2019-05-02T12:50:41.942Z,18.60
2019-05-02T12:53:08.096Z,18.40
2019-05-02T12:55:36.116Z,18.40
2019-05-02T12:58:03.323Z,18.60
2019-05-02T13:00:32.009Z,18.60
2019-05-02T13:03:08.866Z,18.70
2019-05-02T13:05:35.916Z,18.60
2019-05-02T13:08:04.886Z,18.70
2019-05-02T13:10:33.888Z,18.60
2019-05-02T13:13:03.873Z,18.60
2019-05-02T13:15:32.950Z,18.70
2019-05-02T13:17:59.177Z,18.70
2019-05-02T13:20:29.402Z,18.80
2019-05-02T13:23:01.546Z,18.90
2019-05-02T13:25:35.195Z,18.90
2019-05-02T13:28:02.001Z,18.80
2019-05-02T13:30:46.701Z,18.50
2019-05-02T13:33:27.328Z,18.40
2019-05-02T13:35:56.194Z,18.50
2019-05-02T13:38:24.345Z,18.50
2019-05-02T13:40:57.124Z,18.60
2019-05-02T13:43:25.043Z,18.40
2019-05-02T13:46:06.456Z,18.40
2019-05-02T13:48:33.520Z,18.50
2019-05-02T13:51:03.784Z,18.50
2019-05-02T13:53:29.666Z,18.50
2019-05-02T13:56:16.593Z,18.70
2019-05-02T13:58:42.677Z,18.90
2019-05-02T14:01:09.213Z,19.50
2019-05-02T14:03:36.266Z,19.60
2019-05-02T14:06:02.962Z,19.60
2019-05-02T14:08:36.733Z,19.60
2019-05-02T14:11:07.706Z,19.90
2019-05-02T14:13:34.035Z,20.20
2019-05-02T14:16:02.148Z,20.30
2019-05-02T14:18:30.989Z,20.10
2019-05-02T14:20:56.211Z,20.00
2019-05-02T14:23:22.263Z,19.70
2019-05-02T14:25:49.319Z,19.50
2019-05-02T14:28:15.395Z,19.50
2019-05-02T14:30:45.970Z,19.60
2019-05-02T14:33:14.115Z,19.50
2019-05-02T14:35:40.190Z,19.50
2019-05-02T14:38:06.906Z,19.40
2019-05-02T14:40:33.471Z,19.60
2019-05-02T14:43:03.484Z,19.90
2019-05-02T14:45:31.346Z,20.30
2019-05-02T14:47:58.867Z,20.40
2019-05-02T14:50:26.621Z,20.60
2019-05-02T14:52:52.493Z,20.80
2019-05-02T14:55:22.209Z,21.00
2019-05-02T14:57:46.786Z,20.80
2019-05-02T15:00:14.141Z,20.60
2019-05-02T15:02:44.987Z,20.20
2019-05-02T15:05:12.758Z,20.20
2019-05-02T15:07:39.046Z,20.30
2019-05-02T15:10:06.705Z,20.40
2019-05-02T15:12:33.801Z,20.40
2019-05-02T15:15:02.490Z,20.70
2019-05-02T15:17:36.269Z,21.10
2019-05-02T15:19:56.669Z,21.30
2019-05-02T15:22:27.600Z,20.90
2019-05-02T15:24:53.272Z,21.00
2019-05-02T15:27:19.569Z,21.00
2019-05-02T15:29:46.590Z,20.80
2019-05-02T15:32:27.874Z,21.00
2019-05-02T15:34:55.772Z,20.60
2019-05-02T15:37:25.589Z,20.20
2019-05-02T15:42:22.918Z,19.90
2019-05-02T15:44:48.635Z,19.80
2019-05-02T15:47:15.241Z,19.70
2019-05-02T15:49:50.352Z,19.60
2019-05-02T15:52:24.192Z,19.50
2019-05-02T15:54:55.493Z,19.40
2019-05-02T15:57:22.074Z,19.20
2019-05-02T15:59:47.272Z,19.10
2019-05-02T16:02:17.600Z,19.10
2019-05-02T16:04:43.973Z,19.10
2019-05-02T16:07:12.401Z,19.00
2019-05-02T16:09:41.658Z,18.90
2019-05-02T16:12:08.085Z,18.70
2019-05-02T16:14:36.299Z,18.60
2019-05-02T16:17:17.577Z,18.40
2019-05-02T16:19:35.451Z,18.40
2019-05-02T16:22:06.895Z,18.40
2019-05-02T16:24:33.365Z,18.40
2019-05-02T16:27:02.532Z,18.50
2019-05-02T16:29:31.861Z,18.50
2019-05-02T16:32:05.687Z,18.60
2019-05-02T16:34:34.456Z,18.50
2019-05-02T16:37:13.420Z,18.40
2019-05-02T16:39:42.521Z,18.40
2019-05-02T16:42:12.592Z,18.40
2019-05-02T16:44:39.051Z,18.30
2019-05-02T16:47:05.084Z,18.30
2019-05-02T16:49:32.221Z,18.20
2019-05-02T16:52:07.258Z,18.20
2019-05-02T16:54:41.526Z,18.20
2019-05-02T16:57:05.738Z,18.30
2019-05-02T16:59:32.401Z,18.30
2019-05-02T17:02:07.995Z,18.30
2019-05-02T17:04:35.584Z,18.20
2019-05-02T17:07:05.887Z,18.20
2019-05-02T17:09:38.794Z,18.10
2019-05-02T17:12:11.893Z,18.10
2019-05-02T17:14:51.559Z,18.10
2019-05-02T17:17:14.175Z,18.20
2019-05-02T17:19:40.225Z,18.30
2019-05-02T17:22:12.002Z,18.30
2019-05-02T17:24:38.215Z,18.30
2019-05-02T17:27:04.335Z,18.30
2019-05-02T17:29:31.834Z,18.20
2019-05-02T17:31:59.315Z,18.10
2019-05-02T17:34:30.684Z,18.10
2019-05-02T17:36:59.114Z,18.00
2019-05-02T17:39:23.138Z,18.00
2019-05-02T17:41:49.131Z,18.00
2019-05-02T17:44:18.374Z,17.90
2019-05-02T17:46:50.690Z,17.90
2019-05-02T17:49:15.696Z,17.80
2019-05-02T17:52:05.708Z,17.90
2019-05-02T17:54:28.044Z,18.00
2019-05-02T17:56:57.517Z,17.80
2019-05-02T17:59:34.431Z,17.80
2019-05-02T18:01:58.782Z,17.60
2019-05-02T18:04:28.017Z,17.50
2019-05-02T18:06:55.385Z,17.40
2019-05-02T18:09:26.231Z,17.40
2019-05-02T18:11:51.839Z,17.30
2019-05-02T18:14:21.139Z,17.30
2019-05-02T18:16:51.968Z,17.30
2019-05-02T18:19:21.858Z,17.20
2019-05-02T18:21:46.220Z,17.30
2019-05-02T18:24:13.449Z,17.30
2019-05-02T18:26:39.632Z,17.20
2019-05-02T18:29:06.985Z,17.10
2019-05-02T18:31:39.643Z,17.20
2019-05-02T18:34:14.332Z,17.20
2019-05-02T18:36:41.659Z,17.10
2019-05-02T18:39:09.768Z,17.10
2019-05-02T18:41:37.299Z,17.00
2019-05-02T18:44:17.098Z,17.00
2019-05-02T18:46:44.311Z,17.10
2019-05-02T18:49:12.378Z,17.10
2019-05-02T18:51:48.263Z,17.10
2019-05-02T18:54:12.656Z,17.00
2019-05-02T18:56:44.236Z,17.00
2019-05-02T18:59:06.731Z,16.90
2019-05-02T19:01:37.917Z,16.80
2019-05-02T19:04:05.956Z,16.80
2019-05-02T19:06:33.197Z,16.90
2019-05-02T19:09:06.776Z,16.80
2019-05-02T19:11:35.277Z,16.90
2019-05-02T19:14:03.164Z,16.70
2019-05-02T19:16:29.274Z,16.70
2019-05-02T19:19:01.715Z,16.70
2019-05-02T19:21:35.457Z,16.60
2019-05-02T19:24:02.138Z,16.50
2019-05-02T19:26:30.073Z,16.50
2019-05-02T19:29:08.334Z,16.40
2019-05-02T19:31:42.203Z,16.40
2019-05-02T19:34:06.030Z,16.30
2019-05-02T19:36:32.829Z,16.30
2019-05-02T19:39:07.874Z,16.20
2019-05-02T19:41:31.962Z,16.20
2019-05-02T19:43:59.022Z,16.00
2019-05-02T19:46:34.552Z,15.80
2019-05-02T19:48:55.626Z,15.60
2019-05-02T19:51:22.557Z,15.50
2019-05-02T19:53:59.398Z,15.40
2019-05-02T19:56:43.939Z,15.20
2019-05-02T19:59:08.631Z,15.20
2019-05-02T20:01:37.078Z,15.10
2019-05-02T20:04:06.149Z,15.10
2019-05-02T20:06:33.999Z,15.10
2019-05-02T20:09:04.715Z,15.10
2019-05-02T20:11:32.876Z,15.00
2019-05-02T20:14:09.156Z,14.90
2019-05-02T20:16:36.639Z,14.80
2019-05-02T20:19:09.409Z,14.70
2019-05-02T20:21:43.956Z,14.80
2019-05-02T20:24:17.469Z,14.70
2019-05-02T20:26:38.117Z,14.70
2019-05-02T20:29:06.564Z,14.70
2019-05-02T20:31:34.561Z,14.70
2019-05-02T20:34:02.897Z,14.70
2019-05-02T20:36:32.442Z,14.70
2019-05-02T20:38:59.511Z,14.60
2019-05-02T20:41:27.988Z,14.50
2019-05-02T20:43:56.330Z,14.50
2019-05-02T20:46:23.522Z,14.50
2019-05-02T20:48:52.631Z,14.50
2019-05-02T20:51:18.783Z,14.50
2019-05-02T20:53:45.939Z,14.60
2019-05-02T20:56:14.856Z,14.50
2019-05-02T20:58:42.152Z,14.50
2019-05-02T21:01:12.378Z,14.60
2019-05-02T21:03:39.366Z,14.50
2019-05-02T21:06:08.186Z,14.70
2019-05-02T21:08:58.537Z,14.70
2019-05-02T21:11:24.002Z,14.60
2019-05-02T21:13:52.917Z,14.70
2019-05-02T21:16:21.839Z,14.50
2019-05-02T21:18:48.413Z,14.50
2019-05-02T21:21:16.972Z,14.50
2019-05-02T21:23:47.346Z,14.40
2019-05-02T21:26:10.963Z,14.30
2019-05-02T21:28:38.524Z,14.30
2019-05-02T21:31:05.574Z,14.20
2019-05-02T21:33:36.068Z,14.10
2019-05-02T21:36:03.824Z,14.00
2019-05-02T21:38:31.947Z,14.00
2019-05-02T21:40:58.134Z,13.90
2019-05-02T21:43:26.235Z,13.80
2019-05-02T21:45:55.297Z,13.70
2019-05-02T21:48:23.204Z,13.60
2019-05-02T21:50:55.233Z,13.60
2019-05-02T21:53:33.134Z,13.80
2019-05-02T21:56:02.811Z,13.80
2019-05-02T21:58:28.997Z,13.80
2019-05-02T22:01:02.033Z,13.90
2019-05-02T22:03:28.857Z,13.80
2019-05-02T22:05:55.892Z,13.70
2019-05-02T22:08:22.911Z,13.70
2019-05-02T22:10:49.299Z,13.60
2019-05-02T22:13:15.423Z,13.70
2019-05-02T22:15:42.054Z,13.70
2019-05-02T22:18:08.174Z,13.70
2019-05-02T22:20:36.226Z,13.80
2019-05-02T22:23:03.054Z,13.80
2019-05-02T22:25:32.694Z,13.70
2019-05-02T22:28:02.018Z,13.70
2019-05-02T22:30:30.058Z,13.70
2019-05-02T22:32:59.532Z,13.60
2019-05-02T22:35:25.665Z,13.50
2019-05-02T22:37:53.643Z,13.50
2019-05-02T22:40:21.679Z,13.50
2019-05-02T22:42:49.032Z,13.40
2019-05-02T22:45:17.980Z,13.40
2019-05-02T22:47:46.106Z,13.40
2019-05-02T22:50:14.184Z,13.50
2019-05-02T22:52:41.628Z,13.50
2019-05-02T22:55:09.138Z,13.50
2019-05-02T22:57:35.224Z,13.40
2019-05-02T23:00:07.154Z,13.40
2019-05-02T23:02:35.389Z,13.40
2019-05-02T23:05:04.083Z,13.30
2019-05-02T23:07:30.137Z,13.30
2019-05-02T23:09:57.574Z,13.30
2019-05-02T23:12:25.039Z,13.40
2019-05-02T23:14:53.293Z,13.50
2019-05-02T23:17:23.199Z,13.30
2019-05-02T23:19:49.763Z,13.30
2019-05-02T23:22:15.838Z,13.30
2019-05-02T23:24:45.069Z,13.30
2019-05-02T23:27:29.187Z,13.40
2019-05-02T23:29:56.247Z,13.40
2019-05-02T23:32:23.893Z,13.30
2019-05-02T23:34:52.323Z,13.30
2019-05-02T23:37:18.469Z,13.20
2019-05-02T23:39:44.492Z,13.10
2019-05-02T23:42:10.525Z,13.00
2019-05-02T23:44:36.549Z,13.00
2019-05-02T23:47:02.892Z,13.00
2019-05-02T23:49:29.211Z,13.00
2019-05-02T23:51:55.279Z,13.00
2019-05-02T23:54:22.047Z,13.10
2019-05-02T23:56:49.223Z,13.00
2019-05-02T23:59:15.262Z,13.00
